Latest Coastal Weather Observations for Laverton

IDV60701

Issued at 2:45 am EST Wednesday 3 September 2014 (issued every 10 minutes, with the page automatically refreshed every 10 minutes)

About coastal observations | Map of coastal stations | Coastal observations for VIC | Marine services | Other Formats
Station Details ID: 087031 Name: LAVERTON RAAF Lat: -37.86 Lon: 144.76 Height: 20.1 m
Data from the previous 72 hours. | See also: Recent months at Laverton
Date/Time
EST
Temp

°C
Wind Pressure Rain
since 9am
mm
Weather Cloud Vis
km
Sea
Height
m
Swell
Dir
 
Speed
knots
Gust
knots
hPa Trend Height
m
Period
s
Dir
03/02:30am 6.7 W 7 10 1022.9 - 1.0 - Partly cloudy 10 - - - -
03/02:00am 6.5 W 7 9 1023.2 - 1.0 - Partly cloudy 10 - - - -
03/01:30am 7.0 WSW 8 12 1023.5 - 1.0 - Partly cloudy 10 - - - -
03/01:00am 7.5 WSW 9 11 1023.4 - 1.0 - Partly cloudy 10 - - - -
03/12:30am 7.0 W 7 9 1023.2 - 1.0 - Partly cloudy 10 - - - -
03/12:00am 6.9 W 8 10 1023.2 - 1.0 - - 10 - - - -
 
Date/Time
EST
Temp

°C
Wind Pressure Rain
since 9am
mm
Weather Cloud Vis
km
Sea
Height
m
Swell
Dir
 
Speed
knots
Gust
knots
hPa Trend Height
m
Period
s
Dir
02/11:30pm 7.1 W 8 11 1023.3 - 1.0 - Partly cloudy 10 - - - -
02/11:00pm 7.2 WSW 4 6 1023.4 - 1.0 - Partly cloudy 10 - - - -
02/10:30pm 7.5 WSW 9 13 1023.5 - 0.6 - - 10 - - - -
02/10:00pm 7.9 W 8 11 1023.5 - 0.6 - Partly cloudy 10 - - - -
02/09:30pm 8.2 WSW 7 9 1023.4 - 0.6 - Partly cloudy 10 - - - -
02/09:00pm 8.6 W 7 10 1023.4 - 0.6 - Mostly clear 10 - - - -
02/08:30pm 9.0 SW 7 9 1023.2 - 0.6 - Partly cloudy 10 - - - -
02/08:00pm 10.1 SSW 11 14 1023.0 - 0.6 - Partly cloudy 10 - - - -
02/07:30pm 9.9 SSW 12 16 1022.8 - 0.6 - Partly cloudy 10 - - - -
02/07:00pm 9.5 S 10 13 1022.7 - 0.6 - Partly cloudy 10 - - - -
02/06:30pm 9.2 S 13 17 1022.5 - 0.4 - Partly cloudy 10 - - - -
02/06:00pm 9.9 SSW 13 17 1022.0 - 0.4 Recent precip. Cloudy 10 - - - -
02/05:30pm 10.2 SSW 10 14 1021.6 - 0.4 - Partly cloudy 10 - - - -
02/05:00pm 11.2 SSW 13 19 1021.3 - 0.2 - Partly cloudy 10 - - - -
02/04:30pm 11.2 SSW 13 19 1021.0 - 0.2 - Partly cloudy 10 - - - -
02/04:00pm 12.0 S 14 20 1020.6 - 0.2 - Partly cloudy 10 - - - -
02/03:30pm 12.6 S 16 22 1020.4 - 0.2 - Partly cloudy 10 - - - -
02/03:00pm 12.7 S 15 23 1020.2 - 0.2 - Cloudy 10 - - - -
02/02:57pm 12.9 S 15 25 1020.2 - 0.2 - Partly cloudy 10 - - - -
02/02:30pm 13.1 S 18 25 1019.9 - 0.2 - Partly cloudy 10 - - - -
02/02:00pm 12.9 S 16 24 1019.7 - 0.2 - Partly cloudy 10 - - - -
02/01:30pm 12.6 S 16 24 1019.6 - 0.2 - Partly cloudy 10 - - - -
02/01:00pm 12.9 S 18 26 1019.5 - 0.2 - Partly cloudy 10 - - - -
02/12:30pm 13.4 S 18 27 1019.5 - 0.2 - - 10 - - - -
02/12:00pm 13.5 S 18 27 1019.4 - 0.2 - - 10 - - - -
02/11:58am 13.6 S 18 28 1019.4 - 0.2 - - 10 - - - -
02/11:30am 12.8 S 19 26 1019.2 - 0.2 - Partly cloudy 10 - - - -
02/11:00am 13.1 S 17 25 1019.2 - 0.2 - Partly cloudy 10 - - - -
02/10:30am 11.4 WSW 12 16 1019.1 - 0.2 - Partly cloudy 10 - - - -
02/10:00am 11.3 WSW 13 16 1018.8 - 0.2 - Partly cloudy 10 - - - -
02/09:30am 10.4 SW 14 21 1018.7 - 0.0 - Partly cloudy 9 - - - -
02/09:00am 10.9 WSW 11 16 1018.3 - 10.2 - Cloudy 10 - - - -
02/08:30am 9.7 WSW 11 15 1018.1 - 10.2 - Partly cloudy 10 - - - -
02/08:00am 8.9 WSW 12 15 1017.7 - 10.2 - Partly cloudy 10 - - - -
02/07:30am 8.3 W 8 11 1017.0 - 10.0 - Partly cloudy 10 - - - -
02/07:00am 8.0 WSW 10 15 1017.0 - 10.0 - Partly cloudy 10 - - - -
02/06:30am 7.7 W 10 16 1016.4 - 10.0 - Partly cloudy 10 - - - -
02/06:00am 7.8 W 7 9 1015.9 - 10.0 - Mostly cloudy 10 - - - -
02/05:30am 8.4 WSW 8 12 1015.6 - 10.0 - Partly cloudy 10 - - - -
02/05:00am 8.3 WSW 11 16 1015.2 - 10.0 - Partly cloudy 10 - - - -
02/04:30am 8.2 WSW 11 17 1015.0 - 9.6 - Partly cloudy 10 - - - -
02/04:00am 8.1 W 6 10 1014.5 - 9.6 - Partly cloudy 10 - - - -
02/03:30am 8.1 WSW 7 10 1014.2 - 9.6 - Partly cloudy 10 - - - -
02/03:00am 8.1 W 7 10 1014.2 - 9.6 - Cloudy 10 - - - -
02/02:30am 8.6 W 8 10 1013.9 - 9.6 - Partly cloudy 10 - - - -
02/02:00am 8.9 W 9 11 1013.9 - 9.6 - Partly cloudy 10 - - - -
02/01:30am 8.5 WSW 8 10 1014.1 - 9.6 - Partly cloudy 10 - - - -
02/01:00am 8.5 W 8 9 1013.7 - 9.6 - Partly cloudy 10 - - - -
02/12:30am 8.0 W 7 9 1013.5 - 9.6 - Partly cloudy 10 - - - -
02/12:00am 8.4 W 8 9 1013.5 - 9.6 - Partly cloudy 10 - - - -
 
Date/Time
EST
Temp

°C
Wind Pressure Rain
since 9am
mm
Weather Cloud Vis
km
Sea
Height
m
Swell
Dir
 
Speed
knots
Gust
knots
hPa Trend Height
m
Period
s
Dir
01/11:30pm 8.2 W 7 10 1013.1 - 9.6 - Partly cloudy 10 - - - -
01/11:00pm 8.6 WNW 5 7 1013.0 - 9.6 - Partly cloudy 10 - - - -
01/10:30pm 9.3 W 7 9 1012.8 - 9.6 - Partly cloudy 10 - - - -
01/10:00pm 9.2 WNW 6 8 1012.8 - 9.6 - Partly cloudy 10 - - - -
01/09:30pm 9.0 NW 6 7 1012.6 - 9.6 - Partly cloudy 10 - - - -
01/09:00pm 9.1 NW 6 7 1012.5 - 9.6 - Cloudy 10 - - - -
01/08:30pm 8.9 NW 6 8 1012.1 - 9.6 - Cloudy 10 - - - -
01/08:00pm 8.7 NW 5 7 1011.9 - 9.6 - Cloudy 10 - - - -
01/07:30pm 8.9 NW 7 9 1011.4 - 9.6 - Cloudy 10 - - - -
01/07:00pm 9.6 W 7 10 1011.3 - 9.6 - Partly cloudy 10 - - - -
01/06:30pm 9.3 WSW 7 10 1011.0 - 9.4 - Partly cloudy 10 - - - -
01/06:05pm 9.5 WSW 15 23 1011.0 - 8.2 - Partly cloudy 4 - - - -
01/06:00pm 10.3 NW 5 7 1010.6 - 7.4 Rain Cloudy 7 - - - -
01/05:30pm 10.4 S 5 6 1010.2 - 6.2 - Partly cloudy 4 - - - -
01/05:07pm 10.8 SSW 9 14 1010.0 - 4.0 - Partly cloudy 7 - - - -
01/05:00pm 11.2 SSW 11 14 1009.8 - 3.0 - Partly cloudy 10 - - - -
01/04:30pm 12.0 WNW 6 8 1009.2 - 2.8 - Partly cloudy 10 - - - -
01/04:00pm 11.9 WNW 6 8 1008.9 - 2.8 - Partly cloudy 10 - - - -
01/03:30pm 11.9 W 8 11 1008.8 - 2.8 - Partly cloudy 10 - - - -
01/03:00pm 12.2 WNW 8 10 1008.7 - 2.4 - Mostly cloudy 10 - - - -
01/02:30pm 12.1 W 9 13 1008.5 - 2.4 - Cloudy 10 - - - -
01/02:00pm 12.4 WSW 16 22 1008.4 - 2.4 - Partly cloudy 10 - - - -
01/01:56pm 12.7 WSW 15 24 1008.4 - 2.4 - Partly cloudy 10 - - - -
01/01:30pm 14.0 W 9 12 1008.5 - 2.4 - Partly cloudy 10 - - - -
01/01:00pm 13.7 NW 6 8 1008.7 - 2.4 - Cloudy 10 - - - -
01/12:30pm 13.6 NNW 7 10 1008.6 - 2.4 - Cloudy 10 - - - -
01/12:00pm 13.1 N 7 11 1008.8 - 2.4 Recent precip. Cloudy 10 - - - -
01/11:30am 12.2 N 6 9 1008.6 - 2.4 - Partly cloudy 10 - - - -
01/11:15am 11.9 N 7 9 1008.8 - 2.4 - Partly cloudy 10 - - - -
01/11:00am 11.8 NNW 8 10 1009.2 - 2.2 - Partly cloudy 7 - - - -
01/10:36am 12.7 NNW 7 11 1009.2 - 0.6 - Partly cloudy 6 - - - -
01/10:30am 13.4 NNW 8 12 1009.2 - 0.0 - Partly cloudy 10 - - - -
01/10:00am 14.6 NNW 6 9 1009.0 - 0.0 - Partly cloudy 10 - - - -
01/09:30am 14.3 NNW 11 15 1009.6 - 0.0 - Partly cloudy 10 - - - -
01/09:00am 14.1 NNW 12 17 1009.2 - 0.0 - Mostly cloudy 10 - - - -
01/08:30am 14.0 N 8 12 1008.8 - 0.0 - Partly cloudy 10 - - - -
01/08:00am 13.8 NNW 12 17 1009.0 - 0.0 - Cloudy 10 - - - -
01/07:30am 14.2 N 14 22 1008.4 - 0.0 - Cloudy 10 - - - -
01/07:00am 14.4 N 15 22 1007.8 - 0.0 - Partly cloudy 10 - - - -
01/06:30am 14.8 N 16 22 1007.8 - 0.0 - Cloudy 10 - - - -
01/06:00am 14.6 N 14 19 1008.3 - 0.0 - Cloudy 10 - - - -
01/05:30am 14.3 N 12 19 1008.4 - 0.0 - Cloudy 10 - - - -
01/05:00am 14.6 N 15 22 1008.3 - 0.0 - Cloudy 10 - - - -
01/04:37am 14.9 N 16 27 1007.9 - 0.0 - Cloudy 10 - - - -
01/04:30am 14.9 N 14 21 1008.0 - 0.0 - Cloudy 10 - - - -
01/04:01am 15.2 N 18 28 1007.5 - 0.0 - Cloudy 10 - - - -
01/04:00am 15.2 N 19 28 1007.5 - 0.0 - Cloudy 10 - - - -
01/03:30am 15.3 N 19 29 1007.8 - 0.0 - Cloudy 10 - - - -
01/03:00am 15.5 N 18 29 1008.4 - 0.0 - Cloudy 10 - - - -
01/02:47am 15.6 N 18 28 1008.6 - 0.0 - - 10 - - - -
01/02:30am 15.6 N 17 25 1008.8 - 0.0 - - 10 - - - -
01/02:00am 16.1 N 21 32 1009.0 - 0.0 - - 10 - - - -
01/01:30am 16.6 N 21 31 1009.3 - 0.0 - - 10 - - - -
01/01:00am 17.1 N 22 34 1009.6 - 0.0 - - 10 - - - -
01/12:40am 17.3 N 17 30 1010.0 - 0.0 - - 10 - - - -
01/12:30am 17.2 N 15 24 1010.1 - 0.0 - - 10 - - - -
01/12:00am 17.1 N 17 27 1010.1 - 0.0 - Cloudy 10 - - - -
 
Date/Time
EST
Temp

°C
Wind Pressure Rain
since 9am
mm
Weather Cloud Vis
km
Sea
Height
m
Swell
Dir
 
Speed
knots
Gust
knots
hPa Trend Height
m
Period
s
Dir
31/11:35pm 17.2 N 15 26 1010.2 - 0.0 - - 10 - - - -
31/11:30pm 17.0 N 14 23 1010.2 - 0.0 - - 10 - - - -
31/11:02pm 16.9 N 17 27 1010.0 - 0.0 - - 10 - - - -
31/11:00pm 16.9 NNE 18 27 1010.0 - 0.0 - - 10 - - - -
31/10:48pm 16.9 NNE 17 28 1010.1 - 0.0 - - 10 - - - -
31/10:30pm 16.9 NNE 18 27 1010.6 - 0.0 - Partly cloudy 10 - - - -
31/10:17pm 17.0 NNE 17 27 1010.4 - 0.0 - Partly cloudy 10 - - - -
31/10:00pm 16.9 NNE 15 22 1011.1 - 0.0 - Partly cloudy 10 - - - -
31/09:30pm 16.8 N 13 18 1012.2 - 0.0 - Partly cloudy 10 - - - -
31/09:00pm 16.3 NNE 9 13 1012.6 - 0.0 - Cloudy 10 - - - -
31/08:30pm 16.5 NNE 10 14 1012.7 - 0.0 - - 10 - - - -
31/08:00pm 16.8 NNE 10 13 1012.9 - 0.0 - - 10 - - - -
31/07:30pm 16.9 NNE 12 17 1012.9 - 0.0 - - 10 - - - -
31/07:00pm 17.2 NNE 12 16 1013.0 - 0.0 - - 10 - - - -
31/06:30pm 17.6 NNE 12 17 1013.0 - 0.0 - - 10 - - - -
31/06:00pm 17.6 NNE 12 16 1013.4 - 0.0 - Partly cloudy 10 - - - -
31/05:30pm 18.0 NNE 12 17 1013.6 - 0.0 - - 10 - - - -
31/05:00pm 18.4 N 14 22 1013.7 - 0.0 - - 10 - - - -
31/04:30pm 18.8 N 14 21 1013.5 - 0.0 - - 10 - - - -
31/04:00pm 19.1 NNE 15 20 1013.4 - 0.0 - - 10 - - - -
31/03:30pm 20.4 N 15 23 1013.6 - 0.0 - - 10 - - - -
31/03:00pm 20.0 N 15 23 1013.8 - 0.0 - - 10 - - - -
31/02:30pm 22.1 N 13 20 1014.3 - 0.0 - - 10 - - - -
31/02:00pm 21.5 NNW 16 21 1014.6 - 0.0 - - 10 - - - -
31/01:30pm 21.6 NNW 17 24 1014.8 - 0.0 - - 10 - - - -
31/01:07pm 22.1 NNW 16 26 1015.1 - 0.0 - - 10 - - - -
31/01:00pm 22.1 NNW 16 23 1015.3 - 0.0 - - 10 - - - -
31/12:30pm 22.0 NNW 19 27 1015.6 - 0.0 - - 10 - - - -
31/12:00pm 21.8 NNW 18 25 1016.1 - 0.0 - Mostly clear 10 - - - -
31/11:30am 21.8 NNW 17 24 1016.5 - 0.0 - - 10 - - - -
31/11:00am 21.1 N 16 23 1016.9 - 0.0 - - 10 - - - -
31/10:30am 20.4 N 15 24 1017.0 - 0.0 - - 10 - - - -
31/10:17am 20.1 N 15 25 1017.4 - 0.0 - - 10 - - - -
31/10:00am 19.5 N 9 18 1017.6 - 0.0 - - 10 - - - -
31/09:30am 17.3 N 10 16 1018.1 - 0.0 - - 10 - - - -
31/09:00am 16.1 N 9 12 1018.5 - 0.2 - - 10 - - - -
31/08:30am 14.5 N 9 16 1018.6 - 0.2 - - 10 - - - -
31/08:00am 13.2 NNE 9 12 1018.6 - 0.2 - - 10 - - - -
31/07:30am 12.3 NNE 9 13 1018.8 - 0.2 - - 10 - - - -
31/07:00am 11.2 NNE 8 11 1018.9 - 0.2 - - 10 - - - -
31/06:30am 10.5 N 7 10 1018.6 - 0.2 - - 10 - - - -
31/06:00am 10.8 N 8 11 1018.6 - 0.2 - - 10 - - - -
31/05:30am 10.4 NNE 7 9 1018.4 - 0.2 - - 10 - - - -
31/05:00am 10.1 NNE 6 8 1018.3 - 0.2 - - 10 - - - -
31/04:30am 10.0 NNE 7 9 1018.3 - 0.2 - - 10 - - - -
31/04:00am 10.0 N 6 7 1018.6 - 0.2 - - 10 - - - -
31/03:30am 9.5 N 5 7 1018.7 - 0.2 - - 10 - - - -
31/03:00am 9.6 N 4 5 1018.7 - 0.2 - - 10 - - - -

Other Formats:

Comma delimited format used in spreadsheet applications
http://www.bom.gov.au/fwo/IDV60701/IDV60701.94865.axf

JavaScript Object Notation format (JSON) in row-major order
http://www.bom.gov.au/fwo/IDV60701/IDV60701.94865.json